sensor_id;sensor_type;location;lat;lon;timestamp;temperature;humidity
32787;DHT22;19139;49.372;8.580;2023-03-31T00:00:05;21.10;86.00
32787;DHT22;19139;49.372;8.580;2023-03-31T00:02:38;21.10;85.20
32787;DHT22;19139;49.372;8.580;2023-03-31T00:05:08;21.10;85.30
32787;DHT22;19139;49.372;8.580;2023-03-31T00:07:35;21.10;85.20
32787;DHT22;19139;49.372;8.580;2023-03-31T00:10:04;21.10;85.30
32787;DHT22;19139;49.372;8.580;2023-03-31T00:12:43;21.10;85.20
32787;DHT22;19139;49.372;8.580;2023-03-31T00:15:10;21.10;85.20
32787;DHT22;19139;49.372;8.580;2023-03-31T00:17:37;21.10;85.20
32787;DHT22;19139;49.372;8.580;2023-03-31T00:20:04;21.10;85.10
32787;DHT22;19139;49.372;8.580;2023-03-31T00:22:31;21.10;85.20
32787;DHT22;19139;49.372;8.580;2023-03-31T00:24:57;21.10;85.10
32787;DHT22;19139;49.372;8.580;2023-03-31T00:27:24;21.10;85.20
32787;DHT22;19139;49.372;8.580;2023-03-31T00:29:53;21.10;85.10
32787;DHT22;19139;49.372;8.580;2023-03-31T00:32:21;21.10;85.10
32787;DHT22;19139;49.372;8.580;2023-03-31T00:34:47;21.10;85.10
32787;DHT22;19139;49.372;8.580;2023-03-31T00:37:14;21.10;85.20
32787;DHT22;19139;49.372;8.580;2023-03-31T00:39:41;21.10;85.10
32787;DHT22;19139;49.372;8.580;2023-03-31T00:42:10;21.10;85.10
32787;DHT22;19139;49.372;8.580;2023-03-31T00:47:49;21.10;85.10
32787;DHT22;19139;49.372;8.580;2023-03-31T00:50:21;21.10;85.10
32787;DHT22;19139;49.372;8.580;2023-03-31T00:52:56;21.10;85.10
32787;DHT22;19139;49.372;8.580;2023-03-31T00:55:32;21.10;85.00
32787;DHT22;19139;49.372;8.580;2023-03-31T00:58:00;21.10;85.00
32787;DHT22;19139;49.372;8.580;2023-03-31T01:00:27;21.10;85.00
32787;DHT22;19139;49.372;8.580;2023-03-31T01:02:58;21.10;85.00
32787;DHT22;19139;49.372;8.580;2023-03-31T01:07:58;21.10;85.00
32787;DHT22;19139;49.372;8.580;2023-03-31T01:10:26;21.10;85.00
32787;DHT22;19139;49.372;8.580;2023-03-31T01:12:54;21.10;85.00
32787;DHT22;19139;49.372;8.580;2023-03-31T01:15:21;21.10;85.00
32787;DHT22;19139;49.372;8.580;2023-03-31T01:17:48;21.10;85.00
32787;DHT22;19139;49.372;8.580;2023-03-31T01:26:01;21.10;85.00
32787;DHT22;19139;49.372;8.580;2023-03-31T01:31:31;21.10;85.00
32787;DHT22;19139;49.372;8.580;2023-03-31T01:34:40;21.10;84.90
32787;DHT22;19139;49.372;8.580;2023-03-31T01:40:18;21.10;84.90
32787;DHT22;19139;49.372;8.580;2023-03-31T01:43:02;21.10;84.90
32787;DHT22;19139;49.372;8.580;2023-03-31T01:48:13;21.00;84.80
32787;DHT22;19139;49.372;8.580;2023-03-31T01:50:54;21.10;84.80
32787;DHT22;19139;49.372;8.580;2023-03-31T01:53:35;21.10;84.90
32787;DHT22;19139;49.372;8.580;2023-03-31T01:58:58;21.10;84.90
32787;DHT22;19139;49.372;8.580;2023-03-31T02:01:31;21.10;84.90
32787;DHT22;19139;49.372;8.580;2023-03-31T02:04:27;21.10;84.90
32787;DHT22;19139;49.372;8.580;2023-03-31T02:07:03;21.10;84.80
32787;DHT22;19139;49.372;8.580;2023-03-31T02:09:35;21.10;84.80
32787;DHT22;19139;49.372;8.580;2023-03-31T02:12:06;21.00;84.80
32787;DHT22;19139;49.372;8.580;2023-03-31T02:14:37;21.10;84.80
32787;DHT22;19139;49.372;8.580;2023-03-31T02:17:06;21.00;84.50
32787;DHT22;19139;49.372;8.580;2023-03-31T02:19:37;21.00;84.60
32787;DHT22;19139;49.372;8.580;2023-03-31T02:22:07;21.00;84.20
32787;DHT22;19139;49.372;8.580;2023-03-31T02:24:35;21.00;84.40
32787;DHT22;19139;49.372;8.580;2023-03-31T02:29:49;21.00;84.40
32787;DHT22;19139;49.372;8.580;2023-03-31T02:32:30;21.00;84.60
32787;DHT22;19139;49.372;8.580;2023-03-31T02:34:58;21.00;84.50
32787;DHT22;19139;49.372;8.580;2023-03-31T02:37:27;21.00;84.60
32787;DHT22;19139;49.372;8.580;2023-03-31T02:39:56;21.00;84.60
32787;DHT22;19139;49.372;8.580;2023-03-31T02:42:23;21.00;84.60
32787;DHT22;19139;49.372;8.580;2023-03-31T02:44:50;21.00;84.50
32787;DHT22;19139;49.372;8.580;2023-03-31T02:47:19;21.00;84.60
32787;DHT22;19139;49.372;8.580;2023-03-31T02:49:51;21.00;84.60
32787;DHT22;19139;49.372;8.580;2023-03-31T02:52:50;21.00;84.50
32787;DHT22;19139;49.372;8.580;2023-03-31T02:56:05;21.00;84.60
32787;DHT22;19139;49.372;8.580;2023-03-31T03:06:43;21.00;84.50
32787;DHT22;19139;49.372;8.580;2023-03-31T03:12:09;21.00;84.50
32787;DHT22;19139;49.372;8.580;2023-03-31T03:17:24;21.00;84.50
32787;DHT22;19139;49.372;8.580;2023-03-31T03:19:54;21.00;84.60
32787;DHT22;19139;49.372;8.580;2023-03-31T03:22:22;21.00;84.50
32787;DHT22;19139;49.372;8.580;2023-03-31T03:24:49;21.00;84.50
32787;DHT22;19139;49.372;8.580;2023-03-31T03:27:16;21.00;84.50
32787;DHT22;19139;49.372;8.580;2023-03-31T03:29:43;21.00;84.50
32787;DHT22;19139;49.372;8.580;2023-03-31T03:32:10;21.00;84.50
32787;DHT22;19139;49.372;8.580;2023-03-31T03:34:36;21.00;84.50
32787;DHT22;19139;49.372;8.580;2023-03-31T03:37:03;21.00;84.50
32787;DHT22;19139;49.372;8.580;2023-03-31T03:39:30;21.00;84.50
32787;DHT22;19139;49.372;8.580;2023-03-31T03:41:57;21.00;84.60
32787;DHT22;19139;49.372;8.580;2023-03-31T03:44:23;21.00;84.50
32787;DHT22;19139;49.372;8.580;2023-03-31T03:46:50;21.00;84.50
32787;DHT22;19139;49.372;8.580;2023-03-31T03:49:17;21.00;85.30
32787;DHT22;19139;49.372;8.580;2023-03-31T03:51:43;21.00;84.60
32787;DHT22;19139;49.372;8.580;2023-03-31T03:54:10;21.00;84.60
32787;DHT22;19139;49.372;8.580;2023-03-31T03:56:37;21.00;84.50
32787;DHT22;19139;49.372;8.580;2023-03-31T03:59:03;21.00;84.50
32787;DHT22;19139;49.372;8.580;2023-03-31T04:01:30;21.00;84.60
32787;DHT22;19139;49.372;8.580;2023-03-31T04:03:57;21.00;84.50
32787;DHT22;19139;49.372;8.580;2023-03-31T04:06:23;20.90;84.40
32787;DHT22;19139;49.372;8.580;2023-03-31T04:08:50;21.00;84.60
32787;DHT22;19139;49.372;8.580;2023-03-31T04:11:19;20.90;84.40
32787;DHT22;19139;49.372;8.580;2023-03-31T04:13:46;21.00;85.30
32787;DHT22;19139;49.372;8.580;2023-03-31T04:16:13;21.00;84.60
32787;DHT22;19139;49.372;8.580;2023-03-31T04:18:40;21.00;84.50
32787;DHT22;19139;49.372;8.580;2023-03-31T04:21:13;21.00;84.50
32787;DHT22;19139;49.372;8.580;2023-03-31T04:23:50;21.00;84.60
32787;DHT22;19139;49.372;8.580;2023-03-31T04:26:25;21.00;84.60
32787;DHT22;19139;49.372;8.580;2023-03-31T04:28:57;21.00;84.50
32787;DHT22;19139;49.372;8.580;2023-03-31T04:31:26;21.00;84.60
32787;DHT22;19139;49.372;8.580;2023-03-31T04:33:56;21.00;84.50
32787;DHT22;19139;49.372;8.580;2023-03-31T04:36:28;20.90;84.40
32787;DHT22;19139;49.372;8.580;2023-03-31T04:38:56;21.00;84.50
32787;DHT22;19139;49.372;8.580;2023-03-31T04:41:24;20.90;84.40
32787;DHT22;19139;49.372;8.580;2023-03-31T04:43:52;20.90;84.40
32787;DHT22;19139;49.372;8.580;2023-03-31T04:46:19;20.90;84.40
32787;DHT22;19139;49.372;8.580;2023-03-31T04:48:46;21.00;84.60
32787;DHT22;19139;49.372;8.580;2023-03-31T04:51:12;20.90;84.50
32787;DHT22;19139;49.372;8.580;2023-03-31T04:53:40;20.90;84.40
32787;DHT22;19139;49.372;8.580;2023-03-31T04:56:07;20.90;84.40
32787;DHT22;19139;49.372;8.580;2023-03-31T04:58:34;20.90;84.40
32787;DHT22;19139;49.372;8.580;2023-03-31T05:01:01;21.00;84.50
32787;DHT22;19139;49.372;8.580;2023-03-31T05:03:27;20.90;84.50
32787;DHT22;19139;49.372;8.580;2023-03-31T05:05:54;20.90;84.40
32787;DHT22;19139;49.372;8.580;2023-03-31T05:08:21;20.90;84.40
32787;DHT22;19139;49.372;8.580;2023-03-31T05:10:48;21.00;84.60
32787;DHT22;19139;49.372;8.580;2023-03-31T05:13:14;21.00;85.10
32787;DHT22;19139;49.372;8.580;2023-03-31T05:15:41;21.00;85.20
32787;DHT22;19139;49.372;8.580;2023-03-31T05:18:10;21.00;85.10
32787;DHT22;19139;49.372;8.580;2023-03-31T05:20:37;21.00;85.00
32787;DHT22;19139;49.372;8.580;2023-03-31T05:23:04;21.00;85.10
32787;DHT22;19139;49.372;8.580;2023-03-31T05:25:31;21.00;85.00
32787;DHT22;19139;49.372;8.580;2023-03-31T05:27:59;21.00;85.00
32787;DHT22;19139;49.372;8.580;2023-03-31T05:30:26;21.00;85.00
32787;DHT22;19139;49.372;8.580;2023-03-31T05:32:53;20.90;85.60
32787;DHT22;19139;49.372;8.580;2023-03-31T05:35:20;21.00;85.00
32787;DHT22;19139;49.372;8.580;2023-03-31T05:37:47;20.90;84.80
32787;DHT22;19139;49.372;8.580;2023-03-31T05:40:13;20.90;84.80
32787;DHT22;19139;49.372;8.580;2023-03-31T05:42:40;20.90;84.80
32787;DHT22;19139;49.372;8.580;2023-03-31T05:45:07;20.90;84.80
32787;DHT22;19139;49.372;8.580;2023-03-31T05:47:35;20.90;84.80
32787;DHT22;19139;49.372;8.580;2023-03-31T05:50:02;20.90;84.70
32787;DHT22;19139;49.372;8.580;2023-03-31T05:52:33;20.90;84.80
32787;DHT22;19139;49.372;8.580;2023-03-31T05:55:00;20.90;84.80
32787;DHT22;19139;49.372;8.580;2023-03-31T05:57:26;20.90;84.70
32787;DHT22;19139;49.372;8.580;2023-03-31T05:59:53;20.90;84.70
32787;DHT22;19139;49.372;8.580;2023-03-31T06:02:20;20.90;84.70
32787;DHT22;19139;49.372;8.580;2023-03-31T06:04:47;20.90;84.70
32787;DHT22;19139;49.372;8.580;2023-03-31T06:07:13;20.90;84.60
32787;DHT22;19139;49.372;8.580;2023-03-31T06:09:43;20.90;84.60
32787;DHT22;19139;49.372;8.580;2023-03-31T06:12:10;20.90;84.60
32787;DHT22;19139;49.372;8.580;2023-03-31T06:14:37;20.90;84.70
32787;DHT22;19139;49.372;8.580;2023-03-31T06:17:04;20.90;84.60
32787;DHT22;19139;49.372;8.580;2023-03-31T06:19:30;20.90;84.60
32787;DHT22;19139;49.372;8.580;2023-03-31T06:21:57;20.90;84.60
32787;DHT22;19139;49.372;8.580;2023-03-31T06:24:23;20.90;84.60
32787;DHT22;19139;49.372;8.580;2023-03-31T06:26:50;20.90;84.60
32787;DHT22;19139;49.372;8.580;2023-03-31T06:29:19;20.90;84.60
32787;DHT22;19139;49.372;8.580;2023-03-31T06:31:46;20.90;84.60
32787;DHT22;19139;49.372;8.580;2023-03-31T06:34:13;20.90;84.60
32787;DHT22;19139;49.372;8.580;2023-03-31T06:36:40;20.90;84.60
32787;DHT22;19139;49.372;8.580;2023-03-31T06:39:07;20.90;84.60
32787;DHT22;19139;49.372;8.580;2023-03-31T06:41:34;20.90;84.50
32787;DHT22;19139;49.372;8.580;2023-03-31T06:44:00;20.90;84.60
32787;DHT22;19139;49.372;8.580;2023-03-31T06:46:27;20.90;84.60
32787;DHT22;19139;49.372;8.580;2023-03-31T06:48:54;20.90;84.50
32787;DHT22;19139;49.372;8.580;2023-03-31T06:51:20;20.90;84.50
32787;DHT22;19139;49.372;8.580;2023-03-31T06:53:47;20.90;84.50
32787;DHT22;19139;49.372;8.580;2023-03-31T06:56:13;20.90;84.50
32787;DHT22;19139;49.372;8.580;2023-03-31T06:58:40;20.90;85.30
32787;DHT22;19139;49.372;8.580;2023-03-31T07:01:07;20.90;84.50
32787;DHT22;19139;49.372;8.580;2023-03-31T07:03:34;20.90;84.40
32787;DHT22;19139;49.372;8.580;2023-03-31T07:06:01;20.90;84.50
32787;DHT22;19139;49.372;8.580;2023-03-31T07:08:27;20.90;84.40
32787;DHT22;19139;49.372;8.580;2023-03-31T07:10:56;20.90;84.40
32787;DHT22;19139;49.372;8.580;2023-03-31T07:13:24;20.90;84.50
32787;DHT22;19139;49.372;8.580;2023-03-31T07:15:51;20.90;84.40
32787;DHT22;19139;49.372;8.580;2023-03-31T07:18:18;20.90;84.40
32787;DHT22;19139;49.372;8.580;2023-03-31T07:20:48;20.90;84.40
32787;DHT22;19139;49.372;8.580;2023-03-31T07:23:16;20.90;84.40
32787;DHT22;19139;49.372;8.580;2023-03-31T07:25:43;20.90;84.40
32787;DHT22;19139;49.372;8.580;2023-03-31T07:28:10;20.90;84.30
32787;DHT22;19139;49.372;8.580;2023-03-31T07:30:38;20.90;84.40
32787;DHT22;19139;49.372;8.580;2023-03-31T07:33:05;20.90;84.30
32787;DHT22;19139;49.372;8.580;2023-03-31T07:35:37;20.90;84.30
32787;DHT22;19139;49.372;8.580;2023-03-31T07:38:04;20.90;84.30
32787;DHT22;19139;49.372;8.580;2023-03-31T07:40:30;20.90;84.40
32787;DHT22;19139;49.372;8.580;2023-03-31T07:42:57;20.90;84.30
32787;DHT22;19139;49.372;8.580;2023-03-31T07:45:24;20.90;84.30
32787;DHT22;19139;49.372;8.580;2023-03-31T07:47:52;20.90;84.20
32787;DHT22;19139;49.372;8.580;2023-03-31T07:50:19;20.90;84.30
32787;DHT22;19139;49.372;8.580;2023-03-31T07:52:46;20.90;84.30
32787;DHT22;19139;49.372;8.580;2023-03-31T07:55:13;20.90;84.30
32787;DHT22;19139;49.372;8.580;2023-03-31T07:57:40;20.90;84.20
32787;DHT22;19139;49.372;8.580;2023-03-31T08:00:08;20.90;84.30
32787;DHT22;19139;49.372;8.580;2023-03-31T08:02:38;20.90;84.30
32787;DHT22;19139;49.372;8.580;2023-03-31T08:05:05;20.90;84.30
32787;DHT22;19139;49.372;8.580;2023-03-31T08:07:34;20.80;84.30
32787;DHT22;19139;49.372;8.580;2023-03-31T08:10:04;20.80;84.30
32787;DHT22;19139;49.372;8.580;2023-03-31T08:12:31;20.80;84.40
32787;DHT22;19139;49.372;8.580;2023-03-31T08:14:58;20.80;84.40
32787;DHT22;19139;49.372;8.580;2023-03-31T08:17:24;20.80;84.40
32787;DHT22;19139;49.372;8.580;2023-03-31T08:19:51;20.80;84.40
32787;DHT22;19139;49.372;8.580;2023-03-31T08:22:18;20.80;84.40
32787;DHT22;19139;49.372;8.580;2023-03-31T08:24:46;20.80;84.30
32787;DHT22;19139;49.372;8.580;2023-03-31T08:27:12;20.90;84.40
32787;DHT22;19139;49.372;8.580;2023-03-31T08:29:39;20.90;84.40
32787;DHT22;19139;49.372;8.580;2023-03-31T08:32:06;20.80;84.80
32787;DHT22;19139;49.372;8.580;2023-03-31T08:34:33;20.80;85.60
32787;DHT22;19139;49.372;8.580;2023-03-31T08:36:59;20.80;86.10
32787;DHT22;19139;49.372;8.580;2023-03-31T08:39:26;20.70;86.60
32787;DHT22;19139;49.372;8.580;2023-03-31T08:42:05;20.60;87.10
32787;DHT22;19139;49.372;8.580;2023-03-31T08:44:58;20.70;87.40
32787;DHT22;19139;49.372;8.580;2023-03-31T08:47:29;20.60;87.50
32787;DHT22;19139;49.372;8.580;2023-03-31T08:50:02;20.60;87.70
32787;DHT22;19139;49.372;8.580;2023-03-31T08:52:40;20.60;87.80
32787;DHT22;19139;49.372;8.580;2023-03-31T08:55:12;20.50;87.90
32787;DHT22;19139;49.372;8.580;2023-03-31T09:01:01;20.60;88.40
32787;DHT22;19139;49.372;8.580;2023-03-31T09:04:00;20.60;88.40
32787;DHT22;19139;49.372;8.580;2023-03-31T09:06:53;20.60;88.40
32787;DHT22;19139;49.372;8.580;2023-03-31T09:09:50;20.50;88.40
32787;DHT22;19139;49.372;8.580;2023-03-31T09:15:16;20.50;88.40
32787;DHT22;19139;49.372;8.580;2023-03-31T09:17:46;20.50;88.00
32787;DHT22;19139;49.372;8.580;2023-03-31T09:20:36;20.60;87.90
32787;DHT22;19139;49.372;8.580;2023-03-31T09:23:37;20.60;87.80
32787;DHT22;19139;49.372;8.580;2023-03-31T09:26:05;20.60;88.10
32787;DHT22;19139;49.372;8.580;2023-03-31T09:28:38;20.70;88.40
32787;DHT22;19139;49.372;8.580;2023-03-31T09:31:17;20.70;88.40
32787;DHT22;19139;49.372;8.580;2023-03-31T09:33:46;20.70;88.40
32787;DHT22;19139;49.372;8.580;2023-03-31T09:36:19;20.70;88.30
32787;DHT22;19139;49.372;8.580;2023-03-31T09:38:48;20.70;88.20
32787;DHT22;19139;49.372;8.580;2023-03-31T09:41:15;20.70;88.80
32787;DHT22;19139;49.372;8.580;2023-03-31T09:43:42;20.70;87.60
32787;DHT22;19139;49.372;8.580;2023-03-31T09:46:33;20.70;87.60
32787;DHT22;19139;49.372;8.580;2023-03-31T09:49:03;20.70;88.00
32787;DHT22;19139;49.372;8.580;2023-03-31T09:51:34;20.70;87.90
32787;DHT22;19139;49.372;8.580;2023-03-31T09:59:14;20.70;87.90
32787;DHT22;19139;49.372;8.580;2023-03-31T10:01:44;20.80;87.80
32787;DHT22;19139;49.372;8.580;2023-03-31T10:04:43;20.80;87.80
32787;DHT22;19139;49.372;8.580;2023-03-31T10:07:04;20.80;87.60
32787;DHT22;19139;49.372;8.580;2023-03-31T10:09:32;20.80;87.50
32787;DHT22;19139;49.372;8.580;2023-03-31T10:12:08;20.80;87.50
32787;DHT22;19139;49.372;8.580;2023-03-31T10:14:47;20.80;87.40
32787;DHT22;19139;49.372;8.580;2023-03-31T10:17:19;20.80;87.40
32787;DHT22;19139;49.372;8.580;2023-03-31T10:19:49;20.80;87.30
32787;DHT22;19139;49.372;8.580;2023-03-31T10:22:30;20.80;87.30
32787;DHT22;19139;49.372;8.580;2023-03-31T10:25:22;20.80;87.20
32787;DHT22;19139;49.372;8.580;2023-03-31T10:27:54;20.80;87.20
32787;DHT22;19139;49.372;8.580;2023-03-31T10:30:27;20.80;87.10
32787;DHT22;19139;49.372;8.580;2023-03-31T10:32:55;20.80;87.10
32787;DHT22;19139;49.372;8.580;2023-03-31T10:35:32;20.80;86.90
32787;DHT22;19139;49.372;8.580;2023-03-31T10:38:04;20.90;86.90
32787;DHT22;19139;49.372;8.580;2023-03-31T10:40:33;20.90;86.90
32787;DHT22;19139;49.372;8.580;2023-03-31T10:43:14;20.90;86.90
32787;DHT22;19139;49.372;8.580;2023-03-31T10:48:28;20.90;86.70
32787;DHT22;19139;49.372;8.580;2023-03-31T10:51:15;20.80;86.70
32787;DHT22;19139;49.372;8.580;2023-03-31T10:53:49;20.80;86.80
32787;DHT22;19139;49.372;8.580;2023-03-31T10:56:49;20.80;86.70
32787;DHT22;19139;49.372;8.580;2023-03-31T10:59:41;20.90;86.80
32787;DHT22;19139;49.372;8.580;2023-03-31T11:05:30;20.90;87.40
32787;DHT22;19139;49.372;8.580;2023-03-31T11:08:46;20.80;87.30
32787;DHT22;19139;49.372;8.580;2023-03-31T11:14:16;20.80;87.30
32787;DHT22;19139;49.372;8.580;2023-03-31T11:17:17;20.90;87.40
32787;DHT22;19139;49.372;8.580;2023-03-31T11:25:09;20.90;87.30
32787;DHT22;19139;49.372;8.580;2023-03-31T11:30:32;21.00;87.50
32787;DHT22;19139;49.372;8.580;2023-03-31T11:36:00;21.00;87.50
32787;DHT22;19139;49.372;8.580;2023-03-31T11:38:34;21.00;87.50
32787;DHT22;19139;49.372;8.580;2023-03-31T11:41:12;21.00;87.60
32787;DHT22;19139;49.372;8.580;2023-03-31T11:43:52;21.00;87.60
32787;DHT22;19139;49.372;8.580;2023-03-31T11:46:34;21.00;87.70
32787;DHT22;19139;49.372;8.580;2023-03-31T11:54:34;21.00;87.90
32787;DHT22;19139;49.372;8.580;2023-03-31T11:57:09;21.00;87.90
32787;DHT22;19139;49.372;8.580;2023-03-31T11:59:39;21.00;87.80
32787;DHT22;19139;49.372;8.580;2023-03-31T12:02:18;21.00;87.90
32787;DHT22;19139;49.372;8.580;2023-03-31T12:04:52;21.00;87.90
32787;DHT22;19139;49.372;8.580;2023-03-31T12:10:11;21.00;87.80
32787;DHT22;19139;49.372;8.580;2023-03-31T12:15:24;21.00;87.70
32787;DHT22;19139;49.372;8.580;2023-03-31T12:20:40;21.00;87.70
32787;DHT22;19139;49.372;8.580;2023-03-31T12:23:30;21.00;87.70
32787;DHT22;19139;49.372;8.580;2023-03-31T12:28:53;21.00;87.70
32787;DHT22;19139;49.372;8.580;2023-03-31T12:31:22;21.00;87.60
32787;DHT22;19139;49.372;8.580;2023-03-31T12:33:56;21.00;87.60
32787;DHT22;19139;49.372;8.580;2023-03-31T12:51:04;21.00;87.60
32787;DHT22;19139;49.372;8.580;2023-03-31T12:53:58;21.00;87.50
32787;DHT22;19139;49.372;8.580;2023-03-31T12:56:26;21.00;87.50
32787;DHT22;19139;49.372;8.580;2023-03-31T12:58:53;21.00;87.50
32787;DHT22;19139;49.372;8.580;2023-03-31T13:01:21;21.00;87.40
32787;DHT22;19139;49.372;8.580;2023-03-31T13:04:26;21.00;87.50
32787;DHT22;19139;49.372;8.580;2023-03-31T13:06:54;21.00;87.30
32787;DHT22;19139;49.372;8.580;2023-03-31T13:12:11;21.00;87.30
32787;DHT22;19139;49.372;8.580;2023-03-31T13:14:39;21.10;87.30
32787;DHT22;19139;49.372;8.580;2023-03-31T13:17:32;21.10;88.20
32787;DHT22;19139;49.372;8.580;2023-03-31T13:23:17;21.10;87.30
32787;DHT22;19139;49.372;8.580;2023-03-31T13:28:25;21.10;88.00
32787;DHT22;19139;49.372;8.580;2023-03-31T13:30:58;21.10;87.20
32787;DHT22;19139;49.372;8.580;2023-03-31T13:36:37;21.10;87.10
32787;DHT22;19139;49.372;8.580;2023-03-31T13:44:42;21.20;87.10
32787;DHT22;19139;49.372;8.580;2023-03-31T13:53:18;21.20;87.00
32787;DHT22;19139;49.372;8.580;2023-03-31T13:56:14;21.20;87.80
32787;DHT22;19139;49.372;8.580;2023-03-31T14:07:07;21.20;86.90
32787;DHT22;19139;49.372;8.580;2023-03-31T14:09:42;21.20;86.90
32787;DHT22;19139;49.372;8.580;2023-03-31T14:12:36;21.20;86.90
32787;DHT22;19139;49.372;8.580;2023-03-31T14:15:04;21.20;86.90
32787;DHT22;19139;49.372;8.580;2023-03-31T14:17:36;21.20;86.90
32787;DHT22;19139;49.372;8.580;2023-03-31T14:38:54;21.10;86.70
32787;DHT22;19139;49.372;8.580;2023-03-31T14:41:26;21.20;86.70
32787;DHT22;19139;49.372;8.580;2023-03-31T14:44:00;21.10;86.70
32787;DHT22;19139;49.372;8.580;2023-03-31T14:46:30;21.20;86.70
32787;DHT22;19139;49.372;8.580;2023-03-31T14:49:06;21.20;86.70
32787;DHT22;19139;49.372;8.580;2023-03-31T14:51:32;21.20;86.60
32787;DHT22;19139;49.372;8.580;2023-03-31T14:54:00;21.20;86.80
32787;DHT22;19139;49.372;8.580;2023-03-31T14:56:39;21.20;86.80
32787;DHT22;19139;49.372;8.580;2023-03-31T14:59:07;21.20;87.10
32787;DHT22;19139;49.372;8.580;2023-03-31T15:01:36;21.20;87.00
32787;DHT22;19139;49.372;8.580;2023-03-31T15:04:09;21.20;87.10
32787;DHT22;19139;49.372;8.580;2023-03-31T15:06:39;21.20;87.30
32787;DHT22;19139;49.372;8.580;2023-03-31T15:09:14;21.20;87.50
32787;DHT22;19139;49.372;8.580;2023-03-31T15:11:45;21.20;87.60
32787;DHT22;19139;49.372;8.580;2023-03-31T15:14:12;21.20;87.80
32787;DHT22;19139;49.372;8.580;2023-03-31T15:16:43;21.20;87.90
32787;DHT22;19139;49.372;8.580;2023-03-31T15:19:21;21.20;88.00
32787;DHT22;19139;49.372;8.580;2023-03-31T15:21:57;21.20;88.10
32787;DHT22;19139;49.372;8.580;2023-03-31T15:24:28;21.20;88.20
32787;DHT22;19139;49.372;8.580;2023-03-31T15:27:18;21.20;88.40
32787;DHT22;19139;49.372;8.580;2023-03-31T15:30:08;21.20;88.40
32787;DHT22;19139;49.372;8.580;2023-03-31T15:32:40;21.20;88.60
32787;DHT22;19139;49.372;8.580;2023-03-31T15:35:24;21.20;88.70
32787;DHT22;19139;49.372;8.580;2023-03-31T15:37:54;21.20;88.80
32787;DHT22;19139;49.372;8.580;2023-03-31T15:40:35;21.20;88.70
32787;DHT22;19139;49.372;8.580;2023-03-31T15:43:11;21.20;88.80
32787;DHT22;19139;49.372;8.580;2023-03-31T15:45:53;21.20;89.60
32787;DHT22;19139;49.372;8.580;2023-03-31T15:56:34;21.30;89.30
32787;DHT22;19139;49.372;8.580;2023-03-31T15:59:04;21.20;89.20
32787;DHT22;19139;49.372;8.580;2023-03-31T16:01:43;21.20;89.30
32787;DHT22;19139;49.372;8.580;2023-03-31T16:04:13;21.20;89.40
32787;DHT22;19139;49.372;8.580;2023-03-31T16:06:48;21.30;89.40
32787;DHT22;19139;49.372;8.580;2023-03-31T16:09:38;21.20;89.40
32787;DHT22;19139;49.372;8.580;2023-03-31T16:14:49;21.30;89.60
32787;DHT22;19139;49.372;8.580;2023-03-31T16:17:37;21.30;89.60
32787;DHT22;19139;49.372;8.580;2023-03-31T16:20:08;21.30;89.60
32787;DHT22;19139;49.372;8.580;2023-03-31T16:22:41;21.30;89.60
32787;DHT22;19139;49.372;8.580;2023-03-31T16:25:10;21.30;89.40
32787;DHT22;19139;49.372;8.580;2023-03-31T16:27:40;21.30;89.40
32787;DHT22;19139;49.372;8.580;2023-03-31T16:30:20;21.20;89.20
32787;DHT22;19139;49.372;8.580;2023-03-31T16:35:43;21.20;89.00
32787;DHT22;19139;49.372;8.580;2023-03-31T16:38:11;21.20;89.00
32787;DHT22;19139;49.372;8.580;2023-03-31T16:40:44;21.20;88.80
32787;DHT22;19139;49.372;8.580;2023-03-31T16:43:12;21.20;88.70
32787;DHT22;19139;49.372;8.580;2023-03-31T16:45:45;21.20;88.80
32787;DHT22;19139;49.372;8.580;2023-03-31T16:48:17;21.20;88.70
32787;DHT22;19139;49.372;8.580;2023-03-31T16:50:49;21.20;88.60
32787;DHT22;19139;49.372;8.580;2023-03-31T16:53:18;21.20;88.60
32787;DHT22;19139;49.372;8.580;2023-03-31T16:55:45;21.20;88.50
32787;DHT22;19139;49.372;8.580;2023-03-31T16:58:13;21.20;88.40
32787;DHT22;19139;49.372;8.580;2023-03-31T17:00:40;21.20;88.40
32787;DHT22;19139;49.372;8.580;2023-03-31T17:03:08;21.20;88.40
32787;DHT22;19139;49.372;8.580;2023-03-31T17:05:43;21.20;88.20
32787;DHT22;19139;49.372;8.580;2023-03-31T17:08:12;21.20;88.30
32787;DHT22;19139;49.372;8.580;2023-03-31T17:10:39;21.20;88.00
32787;DHT22;19139;49.372;8.580;2023-03-31T17:13:08;21.20;88.10
32787;DHT22;19139;49.372;8.580;2023-03-31T17:15:35;21.20;88.10
32787;DHT22;19139;49.372;8.580;2023-03-31T17:18:02;21.10;88.10
32787;DHT22;19139;49.372;8.580;2023-03-31T17:20:30;21.20;88.00
32787;DHT22;19139;49.372;8.580;2023-03-31T17:22:57;21.20;88.00
32787;DHT22;19139;49.372;8.580;2023-03-31T17:25:24;21.10;88.00
32787;DHT22;19139;49.372;8.580;2023-03-31T17:27:51;21.20;87.90
32787;DHT22;19139;49.372;8.580;2023-03-31T17:30:17;21.20;87.80
32787;DHT22;19139;49.372;8.580;2023-03-31T17:32:44;21.10;87.50
32787;DHT22;19139;49.372;8.580;2023-03-31T17:35:11;21.20;87.80
32787;DHT22;19139;49.372;8.580;2023-03-31T17:37:47;21.10;87.70
32787;DHT22;19139;49.372;8.580;2023-03-31T17:40:16;21.10;87.50
32787;DHT22;19139;49.372;8.580;2023-03-31T17:42:42;21.10;87.60
32787;DHT22;19139;49.372;8.580;2023-03-31T17:45:10;21.10;87.60
32787;DHT22;19139;49.372;8.580;2023-03-31T17:47:37;21.10;87.40
32787;DHT22;19139;49.372;8.580;2023-03-31T17:50:04;21.10;87.50
32787;DHT22;19139;49.372;8.580;2023-03-31T17:52:31;21.10;87.60
32787;DHT22;19139;49.372;8.580;2023-03-31T17:54:58;21.10;87.50
32787;DHT22;19139;49.372;8.580;2023-03-31T17:57:25;21.10;87.50
32787;DHT22;19139;49.372;8.580;2023-03-31T17:59:52;21.10;87.40
32787;DHT22;19139;49.372;8.580;2023-03-31T18:02:19;21.10;87.30
32787;DHT22;19139;49.372;8.580;2023-03-31T18:04:46;21.10;87.30
32787;DHT22;19139;49.372;8.580;2023-03-31T18:07:12;21.10;87.30
32787;DHT22;19139;49.372;8.580;2023-03-31T18:09:39;21.10;87.30
32787;DHT22;19139;49.372;8.580;2023-03-31T18:12:06;21.10;87.20
32787;DHT22;19139;49.372;8.580;2023-03-31T18:14:32;21.10;87.10
32787;DHT22;19139;49.372;8.580;2023-03-31T18:16:59;21.10;87.20
32787;DHT22;19139;49.372;8.580;2023-03-31T18:19:25;21.10;87.10
32787;DHT22;19139;49.372;8.580;2023-03-31T18:21:52;21.10;87.10
32787;DHT22;19139;49.372;8.580;2023-03-31T18:24:19;21.10;87.10
32787;DHT22;19139;49.372;8.580;2023-03-31T18:26:46;21.10;87.00
32787;DHT22;19139;49.372;8.580;2023-03-31T18:29:12;21.10;86.90
32787;DHT22;19139;49.372;8.580;2023-03-31T18:31:39;21.10;87.00
32787;DHT22;19139;49.372;8.580;2023-03-31T18:34:05;21.10;86.90
32787;DHT22;19139;49.372;8.580;2023-03-31T18:36:32;21.10;86.90
32787;DHT22;19139;49.372;8.580;2023-03-31T18:38:59;21.10;87.00
32787;DHT22;19139;49.372;8.580;2023-03-31T18:41:26;21.10;87.70